sensor_id;sensor_type;location;lat;lon;timestamp;temperature;humidity
33761;DHT22;20084;47.912;19.044;2023-07-20T00:01:10;23.20;99.90
33761;DHT22;20084;47.912;19.044;2023-07-20T00:03:36;23.10;99.90
33761;DHT22;20084;47.912;19.044;2023-07-20T00:06:01;23.10;99.90
33761;DHT22;20084;47.912;19.044;2023-07-20T00:08:29;23.10;99.90
33761;DHT22;20084;47.912;19.044;2023-07-20T00:10:55;23.10;99.90
33761;DHT22;20084;47.912;19.044;2023-07-20T00:13:20;23.00;99.90
33761;DHT22;20084;47.912;19.044;2023-07-20T00:15:46;23.00;99.90
33761;DHT22;20084;47.912;19.044;2023-07-20T00:18:12;23.00;99.90
33761;DHT22;20084;47.912;19.044;2023-07-20T00:20:37;22.90;99.90
33761;DHT22;20084;47.912;19.044;2023-07-20T00:23:03;22.90;99.90
33761;DHT22;20084;47.912;19.044;2023-07-20T00:25:29;22.90;99.90
33761;DHT22;20084;47.912;19.044;2023-07-20T00:27:54;22.80;99.90
33761;DHT22;20084;47.912;19.044;2023-07-20T00:30:20;22.70;99.90
33761;DHT22;20084;47.912;19.044;2023-07-20T00:32:46;22.70;99.90
33761;DHT22;20084;47.912;19.044;2023-07-20T00:35:11;22.60;99.90
33761;DHT22;20084;47.912;19.044;2023-07-20T00:37:39;22.50;99.90
33761;DHT22;20084;47.912;19.044;2023-07-20T00:40:05;22.50;99.90
33761;DHT22;20084;47.912;19.044;2023-07-20T00:42:31;22.40;99.90
33761;DHT22;20084;47.912;19.044;2023-07-20T00:44:56;22.40;99.90
33761;DHT22;20084;47.912;19.044;2023-07-20T00:47:22;22.40;99.90
33761;DHT22;20084;47.912;19.044;2023-07-20T00:49:47;22.40;99.90
33761;DHT22;20084;47.912;19.044;2023-07-20T00:52:13;22.30;99.90
33761;DHT22;20084;47.912;19.044;2023-07-20T00:54:39;22.40;99.90
33761;DHT22;20084;47.912;19.044;2023-07-20T00:57:05;22.40;99.90
33761;DHT22;20084;47.912;19.044;2023-07-20T00:59:31;22.40;99.90
33761;DHT22;20084;47.912;19.044;2023-07-20T01:01:57;22.40;99.90
33761;DHT22;20084;47.912;19.044;2023-07-20T01:04:22;22.50;99.90
33761;DHT22;20084;47.912;19.044;2023-07-20T01:06:53;22.50;99.90
33761;DHT22;20084;47.912;19.044;2023-07-20T01:12:06;22.50;99.90
33761;DHT22;20084;47.912;19.044;2023-07-20T01:14:32;22.50;99.90
33761;DHT22;20084;47.912;19.044;2023-07-20T01:16:59;22.50;99.90
33761;DHT22;20084;47.912;19.044;2023-07-20T01:19:25;22.50;99.90
33761;DHT22;20084;47.912;19.044;2023-07-20T01:22:45;22.50;99.90
33761;DHT22;20084;47.912;19.044;2023-07-20T01:27:22;22.50;99.90
33761;DHT22;20084;47.912;19.044;2023-07-20T01:29:55;22.50;99.90
33761;DHT22;20084;47.912;19.044;2023-07-20T01:32:27;22.50;99.90
33761;DHT22;20084;47.912;19.044;2023-07-20T01:34:53;22.40;99.90
33761;DHT22;20084;47.912;19.044;2023-07-20T01:37:19;22.40;99.90
33761;DHT22;20084;47.912;19.044;2023-07-20T01:39:45;22.30;99.90
33761;DHT22;20084;47.912;19.044;2023-07-20T01:42:11;22.30;99.90
33761;DHT22;20084;47.912;19.044;2023-07-20T01:44:37;22.30;99.90
33761;DHT22;20084;47.912;19.044;2023-07-20T01:47:03;22.20;99.90
33761;DHT22;20084;47.912;19.044;2023-07-20T01:49:29;22.20;99.90
33761;DHT22;20084;47.912;19.044;2023-07-20T01:51:54;22.10;99.90
33761;DHT22;20084;47.912;19.044;2023-07-20T01:54:20;22.10;99.90
33761;DHT22;20084;47.912;19.044;2023-07-20T01:56:46;22.00;99.90
33761;DHT22;20084;47.912;19.044;2023-07-20T01:59:12;21.90;99.90
33761;DHT22;20084;47.912;19.044;2023-07-20T02:01:37;21.80;99.90
33761;DHT22;20084;47.912;19.044;2023-07-20T02:04:03;21.70;99.90
33761;DHT22;20084;47.912;19.044;2023-07-20T02:06:29;21.70;99.90
33761;DHT22;20084;47.912;19.044;2023-07-20T02:08:54;21.60;99.90
33761;DHT22;20084;47.912;19.044;2023-07-20T02:11:20;21.50;99.90
33761;DHT22;20084;47.912;19.044;2023-07-20T02:13:45;21.50;99.90
33761;DHT22;20084;47.912;19.044;2023-07-20T02:16:11;21.30;99.90
33761;DHT22;20084;47.912;19.044;2023-07-20T02:18:36;21.30;99.90
33761;DHT22;20084;47.912;19.044;2023-07-20T02:21:02;21.20;99.90
33761;DHT22;20084;47.912;19.044;2023-07-20T02:23:27;21.10;99.90
33761;DHT22;20084;47.912;19.044;2023-07-20T02:25:53;21.10;99.90
33761;DHT22;20084;47.912;19.044;2023-07-20T02:28:19;21.00;99.90
33761;DHT22;20084;47.912;19.044;2023-07-20T02:30:44;21.10;99.90
33761;DHT22;20084;47.912;19.044;2023-07-20T02:33:10;21.00;99.90
33761;DHT22;20084;47.912;19.044;2023-07-20T02:35:35;21.00;99.90
33761;DHT22;20084;47.912;19.044;2023-07-20T02:38:01;21.00;99.90
33761;DHT22;20084;47.912;19.044;2023-07-20T02:40:26;21.00;99.90
33761;DHT22;20084;47.912;19.044;2023-07-20T02:42:52;20.90;99.90
33761;DHT22;20084;47.912;19.044;2023-07-20T02:45:18;20.90;99.90
33761;DHT22;20084;47.912;19.044;2023-07-20T02:47:44;20.80;99.90
33761;DHT22;20084;47.912;19.044;2023-07-20T02:50:09;20.80;99.90
33761;DHT22;20084;47.912;19.044;2023-07-20T02:52:35;20.70;99.90
33761;DHT22;20084;47.912;19.044;2023-07-20T02:55:00;20.70;99.90
33761;DHT22;20084;47.912;19.044;2023-07-20T02:57:26;20.60;99.90
33761;DHT22;20084;47.912;19.044;2023-07-20T02:59:52;20.60;99.90
33761;DHT22;20084;47.912;19.044;2023-07-20T03:02:17;20.60;99.90
33761;DHT22;20084;47.912;19.044;2023-07-20T03:04:43;20.50;99.90
33761;DHT22;20084;47.912;19.044;2023-07-20T03:07:08;20.50;99.90
33761;DHT22;20084;47.912;19.044;2023-07-20T03:09:34;20.50;99.90
33761;DHT22;20084;47.912;19.044;2023-07-20T03:11:59;20.40;99.90
33761;DHT22;20084;47.912;19.044;2023-07-20T03:14:26;20.40;99.90
33761;DHT22;20084;47.912;19.044;2023-07-20T03:16:51;20.40;99.90
33761;DHT22;20084;47.912;19.044;2023-07-20T03:19:17;20.40;99.90
33761;DHT22;20084;47.912;19.044;2023-07-20T03:21:43;20.40;99.90
33761;DHT22;20084;47.912;19.044;2023-07-20T03:24:08;20.40;99.90
33761;DHT22;20084;47.912;19.044;2023-07-20T03:26:34;20.40;99.90
33761;DHT22;20084;47.912;19.044;2023-07-20T03:29:00;20.40;99.90
33761;DHT22;20084;47.912;19.044;2023-07-20T03:31:25;20.40;99.90
33761;DHT22;20084;47.912;19.044;2023-07-20T03:33:51;20.40;99.90
33761;DHT22;20084;47.912;19.044;2023-07-20T03:36:17;20.40;99.90
33761;DHT22;20084;47.912;19.044;2023-07-20T03:38:42;20.50;99.90
33761;DHT22;20084;47.912;19.044;2023-07-20T03:41:08;20.60;99.90
33761;DHT22;20084;47.912;19.044;2023-07-20T03:43:34;20.60;99.90
33761;DHT22;20084;47.912;19.044;2023-07-20T03:46:00;20.60;99.90
33761;DHT22;20084;47.912;19.044;2023-07-20T03:48:25;20.60;99.90
33761;DHT22;20084;47.912;19.044;2023-07-20T03:50:51;20.50;99.90
33761;DHT22;20084;47.912;19.044;2023-07-20T03:53:17;20.40;99.90
33761;DHT22;20084;47.912;19.044;2023-07-20T03:55:46;20.30;99.90
33761;DHT22;20084;47.912;19.044;2023-07-20T03:58:12;20.40;99.90
33761;DHT22;20084;47.912;19.044;2023-07-20T04:00:38;20.30;99.90
33761;DHT22;20084;47.912;19.044;2023-07-20T04:03:04;20.40;99.90
33761;DHT22;20084;47.912;19.044;2023-07-20T04:05:29;20.40;99.90
33761;DHT22;20084;47.912;19.044;2023-07-20T04:07:55;20.50;99.90
33761;DHT22;20084;47.912;19.044;2023-07-20T04:10:20;20.50;99.90
33761;DHT22;20084;47.912;19.044;2023-07-20T04:12:46;20.50;99.90
33761;DHT22;20084;47.912;19.044;2023-07-20T04:15:14;20.60;99.90
33761;DHT22;20084;47.912;19.044;2023-07-20T04:17:40;20.70;99.90
33761;DHT22;20084;47.912;19.044;2023-07-20T04:20:06;20.80;99.90
33761;DHT22;20084;47.912;19.044;2023-07-20T04:22:32;20.80;99.90
33761;DHT22;20084;47.912;19.044;2023-07-20T04:24:57;20.80;99.90
33761;DHT22;20084;47.912;19.044;2023-07-20T04:27:23;20.80;99.90
33761;DHT22;20084;47.912;19.044;2023-07-20T04:29:48;20.90;99.90
33761;DHT22;20084;47.912;19.044;2023-07-20T04:32:14;21.00;99.90
33761;DHT22;20084;47.912;19.044;2023-07-20T04:34:39;21.10;99.90
33761;DHT22;20084;47.912;19.044;2023-07-20T04:37:05;21.20;99.90
33761;DHT22;20084;47.912;19.044;2023-07-20T04:39:30;21.30;99.90
33761;DHT22;20084;47.912;19.044;2023-07-20T04:41:56;21.40;99.90
33761;DHT22;20084;47.912;19.044;2023-07-20T04:44:22;21.50;99.90
33761;DHT22;20084;47.912;19.044;2023-07-20T04:46:47;21.60;99.90
33761;DHT22;20084;47.912;19.044;2023-07-20T04:49:13;21.70;99.90
33761;DHT22;20084;47.912;19.044;2023-07-20T04:51:38;21.80;99.90
33761;DHT22;20084;47.912;19.044;2023-07-20T04:54:04;21.90;99.90
33761;DHT22;20084;47.912;19.044;2023-07-20T04:56:30;22.00;99.90
33761;DHT22;20084;47.912;19.044;2023-07-20T04:58:55;22.10;99.90
33761;DHT22;20084;47.912;19.044;2023-07-20T05:01:21;22.10;99.90
33761;DHT22;20084;47.912;19.044;2023-07-20T05:03:46;22.20;99.90
33761;DHT22;20084;47.912;19.044;2023-07-20T05:06:12;22.30;99.90
33761;DHT22;20084;47.912;19.044;2023-07-20T05:08:38;22.50;99.90
33761;DHT22;20084;47.912;19.044;2023-07-20T05:11:04;22.50;99.90
33761;DHT22;20084;47.912;19.044;2023-07-20T05:13:29;22.60;99.90
33761;DHT22;20084;47.912;19.044;2023-07-20T05:15:55;22.60;99.90
33761;DHT22;20084;47.912;19.044;2023-07-20T05:18:21;22.70;99.90
33761;DHT22;20084;47.912;19.044;2023-07-20T05:20:46;22.70;99.90
33761;DHT22;20084;47.912;19.044;2023-07-20T05:23:12;22.70;99.90
33761;DHT22;20084;47.912;19.044;2023-07-20T05:25:38;22.70;99.90
33761;DHT22;20084;47.912;19.044;2023-07-20T05:28:03;22.80;99.90
33761;DHT22;20084;47.912;19.044;2023-07-20T05:30:29;22.90;99.90
33761;DHT22;20084;47.912;19.044;2023-07-20T05:32:54;23.00;99.90
33761;DHT22;20084;47.912;19.044;2023-07-20T05:35:20;23.20;99.90
33761;DHT22;20084;47.912;19.044;2023-07-20T05:37:46;23.30;99.90
33761;DHT22;20084;47.912;19.044;2023-07-20T05:40:11;23.40;99.90
33761;DHT22;20084;47.912;19.044;2023-07-20T05:42:38;23.60;99.90
33761;DHT22;20084;47.912;19.044;2023-07-20T05:45:03;23.70;99.90
33761;DHT22;20084;47.912;19.044;2023-07-20T05:47:29;23.80;99.90
33761;DHT22;20084;47.912;19.044;2023-07-20T05:49:54;23.90;99.90
33761;DHT22;20084;47.912;19.044;2023-07-20T05:52:20;24.10;99.90
33761;DHT22;20084;47.912;19.044;2023-07-20T05:54:45;24.10;99.90
33761;DHT22;20084;47.912;19.044;2023-07-20T05:57:11;24.20;99.90
33761;DHT22;20084;47.912;19.044;2023-07-20T05:59:36;24.30;99.90
33761;DHT22;20084;47.912;19.044;2023-07-20T06:02:03;24.30;99.90
33761;DHT22;20084;47.912;19.044;2023-07-20T06:04:29;24.30;99.90
33761;DHT22;20084;47.912;19.044;2023-07-20T06:06:54;24.40;99.90
33761;DHT22;20084;47.912;19.044;2023-07-20T06:09:20;24.50;99.90
33761;DHT22;20084;47.912;19.044;2023-07-20T06:11:46;24.50;99.90
33761;DHT22;20084;47.912;19.044;2023-07-20T06:14:11;24.60;99.90
33761;DHT22;20084;47.912;19.044;2023-07-20T06:16:37;24.60;99.90
33761;DHT22;20084;47.912;19.044;2023-07-20T06:19:02;24.60;99.90
33761;DHT22;20084;47.912;19.044;2023-07-20T06:21:28;24.70;99.90
33761;DHT22;20084;47.912;19.044;2023-07-20T06:23:53;24.80;99.90
33761;DHT22;20084;47.912;19.044;2023-07-20T06:26:19;24.90;99.90
33761;DHT22;20084;47.912;19.044;2023-07-20T06:28:45;25.00;99.90
33761;DHT22;20084;47.912;19.044;2023-07-20T06:31:10;25.10;99.90
33761;DHT22;20084;47.912;19.044;2023-07-20T06:33:36;25.20;99.90
33761;DHT22;20084;47.912;19.044;2023-07-20T06:36:02;25.20;99.90
33761;DHT22;20084;47.912;19.044;2023-07-20T06:38:28;25.10;99.90
33761;DHT22;20084;47.912;19.044;2023-07-20T06:40:54;25.10;99.90
33761;DHT22;20084;47.912;19.044;2023-07-20T06:43:20;25.10;99.90
33761;DHT22;20084;47.912;19.044;2023-07-20T06:45:50;25.20;99.90
33761;DHT22;20084;47.912;19.044;2023-07-20T06:48:16;25.30;99.90
33761;DHT22;20084;47.912;19.044;2023-07-20T06:50:42;25.50;99.90
33761;DHT22;20084;47.912;19.044;2023-07-20T06:53:08;25.60;99.90
33761;DHT22;20084;47.912;19.044;2023-07-20T06:55:33;25.60;99.90
33761;DHT22;20084;47.912;19.044;2023-07-20T06:57:59;25.50;99.90
33761;DHT22;20084;47.912;19.044;2023-07-20T07:00:24;25.60;99.90
33761;DHT22;20084;47.912;19.044;2023-07-20T07:02:50;25.70;99.20
33761;DHT22;20084;47.912;19.044;2023-07-20T07:05:15;25.70;99.90
33761;DHT22;20084;47.912;19.044;2023-07-20T07:07:41;25.70;99.20
33761;DHT22;20084;47.912;19.044;2023-07-20T07:10:07;25.70;98.00
33761;DHT22;20084;47.912;19.044;2023-07-20T07:12:33;25.50;97.60
33761;DHT22;20084;47.912;19.044;2023-07-20T07:15:00;25.30;98.60
33761;DHT22;20084;47.912;19.044;2023-07-20T07:17:25;25.20;99.40
33761;DHT22;20084;47.912;19.044;2023-07-20T07:19:51;25.10;99.20
33761;DHT22;20084;47.912;19.044;2023-07-20T07:22:19;25.20;99.90
33761;DHT22;20084;47.912;19.044;2023-07-20T07:24:44;25.00;99.80
33761;DHT22;20084;47.912;19.044;2023-07-20T07:27:10;24.90;99.90
33761;DHT22;20084;47.912;19.044;2023-07-20T07:29:35;24.80;99.90
33761;DHT22;20084;47.912;19.044;2023-07-20T07:32:01;24.60;99.90
33761;DHT22;20084;47.912;19.044;2023-07-20T07:34:27;24.50;99.90
33761;DHT22;20084;47.912;19.044;2023-07-20T07:36:52;24.40;99.90
33761;DHT22;20084;47.912;19.044;2023-07-20T07:39:18;24.30;99.90
33761;DHT22;20084;47.912;19.044;2023-07-20T07:41:43;24.30;99.90
33761;DHT22;20084;47.912;19.044;2023-07-20T07:44:09;24.40;99.90
33761;DHT22;20084;47.912;19.044;2023-07-20T07:46:34;24.40;99.90
33761;DHT22;20084;47.912;19.044;2023-07-20T07:49:00;24.60;99.90
33761;DHT22;20084;47.912;19.044;2023-07-20T07:51:25;24.70;99.90
33761;DHT22;20084;47.912;19.044;2023-07-20T07:53:52;24.80;99.90
33761;DHT22;20084;47.912;19.044;2023-07-20T07:56:18;24.90;99.90
33761;DHT22;20084;47.912;19.044;2023-07-20T07:58:50;25.10;99.90
33761;DHT22;20084;47.912;19.044;2023-07-20T08:01:17;25.10;99.90
33761;DHT22;20084;47.912;19.044;2023-07-20T08:03:44;25.30;99.90
33761;DHT22;20084;47.912;19.044;2023-07-20T08:06:12;25.40;99.90
33761;DHT22;20084;47.912;19.044;2023-07-20T08:08:38;25.40;99.90
33761;DHT22;20084;47.912;19.044;2023-07-20T08:11:04;25.40;99.90
33761;DHT22;20084;47.912;19.044;2023-07-20T08:13:29;25.50;99.90
33761;DHT22;20084;47.912;19.044;2023-07-20T08:15:55;25.50;99.90
33761;DHT22;20084;47.912;19.044;2023-07-20T08:18:20;25.50;99.90
33761;DHT22;20084;47.912;19.044;2023-07-20T08:20:46;25.50;99.90
33761;DHT22;20084;47.912;19.044;2023-07-20T08:23:13;25.50;99.90
33761;DHT22;20084;47.912;19.044;2023-07-20T08:25:41;25.40;99.90
33761;DHT22;20084;47.912;19.044;2023-07-20T08:28:10;25.40;99.90
33761;DHT22;20084;47.912;19.044;2023-07-20T08:30:43;25.50;99.90
33761;DHT22;20084;47.912;19.044;2023-07-20T08:33:13;25.40;99.90
33761;DHT22;20084;47.912;19.044;2023-07-20T08:35:38;25.40;99.90
33761;DHT22;20084;47.912;19.044;2023-07-20T08:38:04;25.40;99.90
33761;DHT22;20084;47.912;19.044;2023-07-20T08:40:33;25.40;99.90
33761;DHT22;20084;47.912;19.044;2023-07-20T08:42:59;25.40;99.90
33761;DHT22;20084;47.912;19.044;2023-07-20T08:45:28;25.40;99.90
33761;DHT22;20084;47.912;19.044;2023-07-20T08:48:00;25.50;99.90
33761;DHT22;20084;47.912;19.044;2023-07-20T08:50:26;25.40;99.90
33761;DHT22;20084;47.912;19.044;2023-07-20T08:52:52;25.50;99.90
33761;DHT22;20084;47.912;19.044;2023-07-20T08:55:18;25.60;99.90
33761;DHT22;20084;47.912;19.044;2023-07-20T08:57:44;25.60;99.90
33761;DHT22;20084;47.912;19.044;2023-07-20T09:00:11;25.60;99.90
33761;DHT22;20084;47.912;19.044;2023-07-20T09:02:38;25.60;99.90
33761;DHT22;20084;47.912;19.044;2023-07-20T09:05:07;25.70;99.90
33761;DHT22;20084;47.912;19.044;2023-07-20T09:07:33;25.70;99.90
33761;DHT22;20084;47.912;19.044;2023-07-20T09:10:00;25.80;99.90
33761;DHT22;20084;47.912;19.044;2023-07-20T09:12:31;25.80;99.90
33761;DHT22;20084;47.912;19.044;2023-07-20T09:14:57;25.80;99.90
33761;DHT22;20084;47.912;19.044;2023-07-20T09:17:22;25.90;99.90
33761;DHT22;20084;47.912;19.044;2023-07-20T09:19:50;26.00;99.90
33761;DHT22;20084;47.912;19.044;2023-07-20T09:22:16;26.10;99.90
33761;DHT22;20084;47.912;19.044;2023-07-20T09:24:42;26.20;99.90
33761;DHT22;20084;47.912;19.044;2023-07-20T09:27:08;26.30;99.90
33761;DHT22;20084;47.912;19.044;2023-07-20T09:29:35;26.40;98.90
33761;DHT22;20084;47.912;19.044;2023-07-20T09:32:12;26.30;99.70
33761;DHT22;20084;47.912;19.044;2023-07-20T09:34:37;26.30;97.70
33761;DHT22;20084;47.912;19.044;2023-07-20T09:37:03;26.30;98.20
33761;DHT22;20084;47.912;19.044;2023-07-20T09:39:29;26.40;96.00
33761;DHT22;20084;47.912;19.044;2023-07-20T09:41:54;26.40;95.10
33761;DHT22;20084;47.912;19.044;2023-07-20T09:44:27;26.30;96.00
33761;DHT22;20084;47.912;19.044;2023-07-20T09:46:52;26.30;96.70
33761;DHT22;20084;47.912;19.044;2023-07-20T09:49:18;26.30;96.50
33761;DHT22;20084;47.912;19.044;2023-07-20T09:51:44;26.30;98.30
33761;DHT22;20084;47.912;19.044;2023-07-20T09:54:11;26.30;97.00
33761;DHT22;20084;47.912;19.044;2023-07-20T09:56:36;26.40;97.20
33761;DHT22;20084;47.912;19.044;2023-07-20T09:59:04;26.40;97.40
33761;DHT22;20084;47.912;19.044;2023-07-20T10:01:29;26.40;97.80
33761;DHT22;20084;47.912;19.044;2023-07-20T10:03:56;26.30;98.30
33761;DHT22;20084;47.912;19.044;2023-07-20T10:06:23;26.30;98.40
33761;DHT22;20084;47.912;19.044;2023-07-20T10:08:51;26.30;96.50
33761;DHT22;20084;47.912;19.044;2023-07-20T10:11:17;26.10;97.40
33761;DHT22;20084;47.912;19.044;2023-07-20T10:13:43;26.20;95.00
33761;DHT22;20084;47.912;19.044;2023-07-20T10:16:18;26.30;95.30
33761;DHT22;20084;47.912;19.044;2023-07-20T10:18:51;26.50;97.70
33761;DHT22;20084;47.912;19.044;2023-07-20T10:21:19;26.80;97.90
33761;DHT22;20084;47.912;19.044;2023-07-20T10:23:45;27.00;97.40
33761;DHT22;20084;47.912;19.044;2023-07-20T10:26:11;27.00;96.10
33761;DHT22;20084;47.912;19.044;2023-07-20T10:28:37;27.10;95.70
33761;DHT22;20084;47.912;19.044;2023-07-20T10:31:03;27.20;95.80
33761;DHT22;20084;47.912;19.044;2023-07-20T10:33:29;27.30;96.40
33761;DHT22;20084;47.912;19.044;2023-07-20T10:35:55;27.40;95.50
33761;DHT22;20084;47.912;19.044;2023-07-20T10:41:27;27.30;94.70
33761;DHT22;20084;47.912;19.044;2023-07-20T10:43:55;27.10;94.20
33761;DHT22;20084;47.912;19.044;2023-07-20T10:49:04;26.80;95.60
33761;DHT22;20084;47.912;19.044;2023-07-20T10:51:30;26.80;93.60
33761;DHT22;20084;47.912;19.044;2023-07-20T10:53:56;26.80;91.70
33761;DHT22;20084;47.912;19.044;2023-07-20T10:56:24;26.90;93.20
33761;DHT22;20084;47.912;19.044;2023-07-20T10:58:54;27.00;93.00
33761;DHT22;20084;47.912;19.044;2023-07-20T11:01:20;27.20;94.30
33761;DHT22;20084;47.912;19.044;2023-07-20T11:03:49;27.30;93.60
33761;DHT22;20084;47.912;19.044;2023-07-20T11:11:40;27.50;92.20
33761;DHT22;20084;47.912;19.044;2023-07-20T11:14:10;27.60;93.60
33761;DHT22;20084;47.912;19.044;2023-07-20T11:16:46;27.60;93.20
33761;DHT22;20084;47.912;19.044;2023-07-20T11:21:44;27.50;91.00
33761;DHT22;20084;47.912;19.044;2023-07-20T11:24:09;27.50;90.40
33761;DHT22;20084;47.912;19.044;2023-07-20T11:29:07;27.40;89.40
33761;DHT22;20084;47.912;19.044;2023-07-20T11:31:39;27.40;90.80
33761;DHT22;20084;47.912;19.044;2023-07-20T11:34:04;27.50;91.70
33761;DHT22;20084;47.912;19.044;2023-07-20T11:36:30;27.50;91.30
33761;DHT22;20084;47.912;19.044;2023-07-20T11:38:56;27.50;89.10
33761;DHT22;20084;47.912;19.044;2023-07-20T11:41:22;27.50;90.30
33761;DHT22;20084;47.912;19.044;2023-07-20T11:43:47;27.50;90.70
33761;DHT22;20084;47.912;19.044;2023-07-20T11:46:13;27.50;91.20
33761;DHT22;20084;47.912;19.044;2023-07-20T11:48:38;27.60;91.50
33761;DHT22;20084;47.912;19.044;2023-07-20T11:51:05;27.40;91.20
33761;DHT22;20084;47.912;19.044;2023-07-20T11:53:31;27.40;90.70
33761;DHT22;20084;47.912;19.044;2023-07-20T11:55:58;27.70;88.10
33761;DHT22;20084;47.912;19.044;2023-07-20T11:58:24;27.90;89.10
33761;DHT22;20084;47.912;19.044;2023-07-20T12:00:50;28.00;87.30
33761;DHT22;20084;47.912;19.044;2023-07-20T12:03:15;28.10;81.20
33761;DHT22;20084;47.912;19.044;2023-07-20T12:05:41;27.90;85.90
33761;DHT22;20084;47.912;19.044;2023-07-20T12:08:07;27.80;86.00
33761;DHT22;20084;47.912;19.044;2023-07-20T12:10:32;27.80;83.60
33761;DHT22;20084;47.912;19.044;2023-07-20T12:13:01;27.70;81.50
33761;DHT22;20084;47.912;19.044;2023-07-20T12:15:28;27.60;83.20
33761;DHT22;20084;47.912;19.044;2023-07-20T12:17:58;27.30;83.50
33761;DHT22;20084;47.912;19.044;2023-07-20T12:22:52;27.20;82.70
33761;DHT22;20084;47.912;19.044;2023-07-20T12:25:17;27.40;85.10
33761;DHT22;20084;47.912;19.044;2023-07-20T12:27:47;27.60;85.40
33761;DHT22;20084;47.912;19.044;2023-07-20T12:30:13;27.60;82.40
33761;DHT22;20084;47.912;19.044;2023-07-20T12:32:42;27.50;81.40
33761;DHT22;20084;47.912;19.044;2023-07-20T12:35:07;27.60;85.90
33761;DHT22;20084;47.912;19.044;2023-07-20T12:37:33;27.80;81.10
33761;DHT22;20084;47.912;19.044;2023-07-20T12:39:58;27.80;80.50
33761;DHT22;20084;47.912;19.044;2023-07-20T12:42:24;27.80;81.50
33761;DHT22;20084;47.912;19.044;2023-07-20T12:44:49;27.80;80.60
33761;DHT22;20084;47.912;19.044;2023-07-20T12:47:16;27.80;81.50
33761;DHT22;20084;47.912;19.044;2023-07-20T12:49:42;27.90;79.50
33761;DHT22;20084;47.912;19.044;2023-07-20T12:52:10;27.70;77.60
33761;DHT22;20084;47.912;19.044;2023-07-20T12:54:36;27.60;77.80
33761;DHT22;20084;47.912;19.044;2023-07-20T12:57:02;27.60;80.90
33761;DHT22;20084;47.912;19.044;2023-07-20T12:59:28;27.70;81.00
33761;DHT22;20084;47.912;19.044;2023-07-20T13:01:54;27.70;79.70
33761;DHT22;20084;47.912;19.044;2023-07-20T13:04:19;27.90;83.10
33761;DHT22;20084;47.912;19.044;2023-07-20T13:06:45;28.10;82.90
33761;DHT22;20084;47.912;19.044;2023-07-20T13:09:10;28.20;82.50
33761;DHT22;20084;47.912;19.044;2023-07-20T13:11:36;28.30;81.80
33761;DHT22;20084;47.912;19.044;2023-07-20T13:14:01;28.30;82.30
33761;DHT22;20084;47.912;19.044;2023-07-20T13:16:27;28.20;82.40
33761;DHT22;20084;47.912;19.044;2023-07-20T13:18:52;28.30;80.70
33761;DHT22;20084;47.912;19.044;2023-07-20T13:21:18;28.40;82.60
33761;DHT22;20084;47.912;19.044;2023-07-20T13:23:48;28.40;80.00
33761;DHT22;20084;47.912;19.044;2023-07-20T13:26:13;28.20;76.20
33761;DHT22;20084;47.912;19.044;2023-07-20T13:28:39;28.00;79.50
33761;DHT22;20084;47.912;19.044;2023-07-20T13:31:05;27.90;82.20
33761;DHT22;20084;47.912;19.044;2023-07-20T13:33:30;27.90;82.20
33761;DHT22;20084;47.912;19.044;2023-07-20T13:35:56;27.90;78.80
33761;DHT22;20084;47.912;19.044;2023-07-20T13:38:21;28.00;82.50
33761;DHT22;20084;47.912;19.044;2023-07-20T13:40:47;28.00;81.60
33761;DHT22;20084;47.912;19.044;2023-07-20T13:43:13;28.00;73.40
33761;DHT22;20084;47.912;19.044;2023-07-20T13:45:39;27.90;76.10
33761;DHT22;20084;47.912;19.044;2023-07-20T13:48:04;27.90;81.60
33761;DHT22;20084;47.912;19.044;2023-07-20T13:50:30;27.90;80.20
33761;DHT22;20084;47.912;19.044;2023-07-20T13:52:55;28.00;81.30
33761;DHT22;20084;47.912;19.044;2023-07-20T13:55:21;28.00;82.30
33761;DHT22;20084;47.912;19.044;2023-07-20T13:57:47;28.10;81.60
33761;DHT22;20084;47.912;19.044;2023-07-20T14:00:13;28.20;80.60
33761;DHT22;20084;47.912;19.044;2023-07-20T14:02:38;28.20;80.70
33761;DHT22;20084;47.912;19.044;2023-07-20T14:05:04;28.30;81.50
33761;DHT22;20084;47.912;19.044;2023-07-20T14:07:30;28.40;81.30
33761;DHT22;20084;47.912;19.044;2023-07-20T14:09:55;28.30;83.40
33761;DHT22;20084;47.912;19.044;2023-07-20T14:12:21;28.30;84.20
33761;DHT22;20084;47.912;19.044;2023-07-20T14:14:47;28.20;81.80
33761;DHT22;20084;47.912;19.044;2023-07-20T14:17:12;28.10;83.80
33761;DHT22;20084;47.912;19.044;2023-07-20T14:19:38;28.00;83.80
33761;DHT22;20084;47.912;19.044;2023-07-20T14:22:04;28.00;86.00
33761;DHT22;20084;47.912;19.044;2023-07-20T14:24:30;27.90;82.30
33761;DHT22;20084;47.912;19.044;2023-07-20T14:26:56;28.10;82.30
33761;DHT22;20084;47.912;19.044;2023-07-20T14:29:21;28.20;84.30
33761;DHT22;20084;47.912;19.044;2023-07-20T14:31:46;28.20;77.20
33761;DHT22;20084;47.912;19.044;2023-07-20T14:34:16;28.00;73.50
33761;DHT22;20084;47.912;19.044;2023-07-20T14:36:42;28.00;75.60
33761;DHT22;20084;47.912;19.044;2023-07-20T14:39:07;28.00;78.70
33761;DHT22;20084;47.912;19.044;2023-07-20T14:41:33;28.20;81.40
33761;DHT22;20084;47.912;19.044;2023-07-20T14:43:58;28.30;78.00
33761;DHT22;20084;47.912;19.044;2023-07-20T14:46:24;28.30;80.70
33761;DHT22;20084;47.912;19.044;2023-07-20T14:48:49;28.40;80.80
33761;DHT22;20084;47.912;19.044;2023-07-20T14:51:17;28.40;82.50
33761;DHT22;20084;47.912;19.044;2023-07-20T14:53:42;28.30;78.70
33761;DHT22;20084;47.912;19.044;2023-07-20T14:56:08;28.30;78.80
33761;DHT22;20084;47.912;19.044;2023-07-20T14:58:34;28.40;75.70
33761;DHT22;20084;47.912;19.044;2023-07-20T15:00:59;28.30;75.00
33761;DHT22;20084;47.912;19.044;2023-07-20T15:03:25;28.20;78.20
33761;DHT22;20084;47.912;19.044;2023-07-20T15:05:50;28.20;80.50
33761;DHT22;20084;47.912;19.044;2023-07-20T15:08:17;28.10;77.40
33761;DHT22;20084;47.912;19.044;2023-07-20T15:10:44;28.00;79.00
33761;DHT22;20084;47.912;19.044;2023-07-20T15:13:12;27.90;77.60
33761;DHT22;20084;47.912;19.044;2023-07-20T15:15:37;27.90;78.60
33761;DHT22;20084;47.912;19.044;2023-07-20T15:18:03;27.90;78.50
33761;DHT22;20084;47.912;19.044;2023-07-20T15:20:28;27.90;77.50
33761;DHT22;20084;47.912;19.044;2023-07-20T15:22:57;28.10;79.60
33761;DHT22;20084;47.912;19.044;2023-07-20T15:25:22;28.10;79.10
33761;DHT22;20084;47.912;19.044;2023-07-20T15:27:48;28.20;77.40
33761;DHT22;20084;47.912;19.044;2023-07-20T15:30:14;28.20;76.80
33761;DHT22;20084;47.912;19.044;2023-07-20T15:32:40;28.10;75.20